createdAt,value
2023-02-21T00:00:28.876Z,22.4300
2023-02-21T00:01:31.144Z,22.4200
2023-02-21T00:02:33.410Z,22.4200
2023-02-21T00:03:33.559Z,22.4200
2023-02-21T00:04:35.827Z,22.4100
2023-02-21T00:05:38.167Z,22.4000
2023-02-21T00:06:40.403Z,22.4000
2023-02-21T00:07:42.660Z,22.3900
2023-02-21T00:08:44.947Z,22.3800
2023-02-21T00:09:47.220Z,22.3900
2023-02-21T00:10:47.346Z,22.3900
2023-02-21T00:11:49.664Z,22.4000
2023-02-21T00:12:51.934Z,22.3900
2023-02-21T00:13:54.298Z,22.3800
2023-02-21T00:14:56.571Z,22.3900
2023-02-21T00:15:58.856Z,22.3800
2023-02-21T00:16:58.989Z,22.3700
2023-02-21T00:18:01.295Z,22.3500
2023-02-21T00:19:03.586Z,22.3500
2023-02-21T00:20:05.849Z,22.3500
2023-02-21T00:21:08.159Z,22.3400
2023-02-21T00:22:10.427Z,22.3300
2023-02-21T00:23:12.711Z,22.3300
2023-02-21T00:24:12.892Z,22.3300
2023-02-21T00:25:15.112Z,22.3300
2023-02-21T00:26:17.448Z,22.3200
2023-02-21T00:27:19.758Z,22.3200
2023-02-21T00:28:22.098Z,22.3200
2023-02-21T00:29:24.509Z,22.3200
2023-02-21T00:30:26.842Z,22.3200
2023-02-21T00:31:26.880Z,22.3100
2023-02-21T00:32:29.100Z,22.3100
2023-02-21T00:33:31.342Z,22.3100
2023-02-21T00:34:33.559Z,22.3100
2023-02-21T00:35:35.676Z,22.3100
2023-02-21T00:36:37.825Z,22.3000
2023-02-21T00:37:39.907Z,22.2900
2023-02-21T00:38:42.070Z,22.2900
2023-02-21T00:39:44.237Z,22.3000
2023-02-21T00:40:28.853Z,22.2200
2023-02-21T00:41:29.519Z,22.2400
2023-02-21T00:42:31.689Z,22.2500
2023-02-21T00:43:36.432Z,22.2600
2023-02-21T00:44:36.207Z,22.2500
2023-02-21T00:45:38.537Z,22.2500
2023-02-21T00:46:40.722Z,22.2400
2023-02-21T00:47:40.822Z,22.2400
2023-02-21T00:48:43.109Z,22.2400
2023-02-21T00:49:45.432Z,22.2500
2023-02-21T00:50:47.846Z,22.2300
2023-02-21T00:51:50.059Z,22.2300
2023-02-21T00:52:52.241Z,22.2300
2023-02-21T00:53:54.492Z,22.2400
2023-02-21T00:54:56.729Z,22.2300
2023-02-21T00:55:56.847Z,22.2100
2023-02-21T00:56:59.041Z,22.2100
2023-02-21T00:58:01.271Z,22.2000
2023-02-21T00:59:03.540Z,22.2000
2023-02-21T01:00:05.817Z,22.1900
2023-02-21T01:01:08.262Z,22.1900
2023-02-21T01:02:10.454Z,22.2000
2023-02-21T01:03:12.769Z,22.2000
2023-02-21T01:04:12.966Z,22.1900
2023-02-21T01:05:15.267Z,22.1800
2023-02-21T01:06:15.502Z,22.1800
2023-02-21T01:07:17.760Z,22.1900
2023-02-21T01:08:20.014Z,22.2000
2023-02-21T01:09:22.284Z,22.1900
2023-02-21T01:10:24.554Z,22.1700
2023-02-21T01:11:24.711Z,22.1700
2023-02-21T01:12:26.955Z,22.1600
2023-02-21T01:13:29.200Z,22.1600
2023-02-21T01:14:31.477Z,22.1600
2023-02-21T01:15:33.828Z,22.1500
2023-02-21T01:16:36.058Z,22.1500
2023-02-21T01:17:38.278Z,22.1400
2023-02-21T01:18:38.398Z,22.1500
2023-02-21T01:19:40.656Z,22.1500
2023-02-21T01:20:42.920Z,22.1400
2023-02-21T01:21:45.183Z,22.1400
2023-02-21T01:22:47.437Z,22.1300
2023-02-21T01:23:49.673Z,22.1200
2023-02-21T01:24:51.942Z,22.1100
2023-02-21T01:25:54.214Z,22.1000
2023-02-21T01:26:56.514Z,22.1000
2023-02-21T01:27:56.612Z,22.1100
2023-02-21T01:28:58.885Z,22.1000
2023-02-21T01:30:01.142Z,22.1000
2023-02-21T01:31:03.463Z,22.1000
2023-02-21T01:32:05.713Z,22.1000
2023-02-21T01:33:07.886Z,22.0900
2023-02-21T01:34:10.170Z,22.1000
2023-02-21T01:35:12.441Z,22.1000
2023-02-21T01:36:14.663Z,22.0900
2023-02-21T01:37:14.737Z,22.0800
2023-02-21T01:38:16.989Z,22.0600
2023-02-21T01:39:19.174Z,22.0700
2023-02-21T01:40:21.426Z,22.0700
2023-02-21T01:41:23.673Z,22.0500
2023-02-21T01:42:25.955Z,22.0400
2023-02-21T01:43:28.145Z,22.0400
2023-02-21T01:44:30.347Z,22.0500
2023-02-21T01:45:32.611Z,22.0600
2023-02-21T01:46:34.858Z,22.0500
2023-02-21T01:47:37.198Z,22.0500
2023-02-21T01:48:39.375Z,22.0600
2023-02-21T01:49:41.637Z,22.0500
2023-02-21T01:50:43.882Z,22.0400
2023-02-21T01:51:46.172Z,22.0300
2023-02-21T01:52:48.446Z,22.0300
2023-02-21T01:53:50.713Z,22.0400
2023-02-21T01:54:50.817Z,22.0300
2023-02-21T01:55:53.103Z,22.0300
2023-02-21T01:56:55.409Z,22.0200
2023-02-21T01:57:57.713Z,22.0200
2023-02-21T01:58:59.967Z,22.0000
2023-02-21T02:00:02.268Z,22.0100
2023-02-21T02:01:04.493Z,21.9900
2023-02-21T02:02:06.760Z,21.9700
2023-02-21T02:03:07.912Z,21.9400
2023-02-21T02:04:08.017Z,21.8600
2023-02-21T02:05:10.246Z,21.8000
2023-02-21T02:06:12.516Z,21.7700
2023-02-21T02:07:14.789Z,21.7600
2023-02-21T02:08:14.989Z,21.7500
2023-02-21T02:09:17.253Z,21.7400
2023-02-21T02:10:19.558Z,21.7300
2023-02-21T02:11:21.832Z,21.7300
2023-02-21T02:12:21.992Z,21.7000
2023-02-21T02:13:24.340Z,21.7100
2023-02-21T02:14:26.576Z,21.7000
2023-02-21T02:15:28.835Z,21.7000
2023-02-21T02:16:31.119Z,21.6900
2023-02-21T02:17:33.405Z,21.6900
2023-02-21T02:18:35.729Z,21.7000
2023-02-21T02:19:35.874Z,21.6900
2023-02-21T02:20:38.129Z,21.6800
2023-02-21T02:21:40.409Z,21.6800
2023-02-21T02:22:42.698Z,21.6800
2023-02-21T02:23:42.948Z,21.6700
2023-02-21T02:24:45.147Z,21.6700
2023-02-21T02:25:47.415Z,21.6700
2023-02-21T02:26:49.713Z,21.6700
2023-02-21T02:27:51.994Z,21.6600
2023-02-21T02:28:54.316Z,21.6600
2023-02-21T02:29:56.563Z,21.6500
2023-02-21T02:30:56.708Z,21.6500
2023-02-21T02:31:59.159Z,21.6400
2023-02-21T02:33:01.270Z,21.6300
2023-02-21T02:34:03.576Z,21.6300
2023-02-21T02:35:03.700Z,21.6300
2023-02-21T02:36:06.061Z,21.6200
2023-02-21T02:37:08.370Z,21.6200
2023-02-21T02:38:08.519Z,21.6200
2023-02-21T02:39:10.854Z,21.6200
2023-02-21T02:40:13.096Z,21.6200
2023-02-21T02:41:15.700Z,21.6200
2023-02-21T02:42:15.536Z,21.6200
2023-02-21T02:43:17.856Z,21.6100
2023-02-21T02:44:20.221Z,21.6100
2023-02-21T02:45:22.518Z,21.6000
2023-02-21T02:46:24.926Z,21.6000
2023-02-21T02:47:27.200Z,21.6000
2023-02-21T02:48:27.383Z,21.6100
2023-02-21T02:49:29.751Z,21.6000
2023-02-21T02:50:32.070Z,21.5900
2023-02-21T02:51:34.436Z,21.5800
2023-02-21T02:52:36.789Z,21.5900
2023-02-21T02:53:39.132Z,21.5800
2023-02-21T02:54:39.367Z,21.5700
2023-02-21T02:55:41.703Z,21.5700
2023-02-21T02:56:44.029Z,21.5700
2023-02-21T02:57:46.359Z,21.5600
2023-02-21T02:58:48.711Z,21.5500
2023-02-21T02:59:51.087Z,21.5400
2023-02-21T03:00:51.260Z,21.5500
2023-02-21T03:01:53.660Z,21.5400
2023-02-21T03:02:55.948Z,21.5500
2023-02-21T03:03:58.360Z,21.5400
2023-02-21T03:05:00.584Z,21.5400
2023-02-21T03:06:02.889Z,21.5500
2023-02-21T03:07:05.168Z,21.5300
2023-02-21T03:08:07.498Z,21.5300
2023-02-21T03:09:09.808Z,21.5300
2023-02-21T03:10:12.190Z,21.5200
2023-02-21T03:11:14.888Z,21.5300
2023-02-21T03:12:16.848Z,21.5200
2023-02-21T03:13:19.197Z,21.5200
2023-02-21T03:14:21.529Z,21.5200
2023-02-21T03:15:23.921Z,21.5100
2023-02-21T03:16:24.108Z,21.5100
2023-02-21T03:17:26.401Z,21.5000
2023-02-21T03:18:28.674Z,21.4800
2023-02-21T03:19:30.986Z,21.4900
2023-02-21T03:20:33.338Z,21.4900
2023-02-21T03:21:35.590Z,21.4900
2023-02-21T03:22:37.831Z,21.4900
2023-02-21T03:23:37.940Z,21.4900
2023-02-21T03:24:40.223Z,21.4900
2023-02-21T03:25:42.657Z,21.4900
2023-02-21T03:26:44.837Z,21.4800
2023-02-21T03:27:44.976Z,21.4800
2023-02-21T03:28:47.223Z,21.4700
2023-02-21T03:29:49.498Z,21.4600
2023-02-21T03:30:51.809Z,21.4700
2023-02-21T03:31:52.068Z,21.4600
2023-02-21T03:32:54.210Z,21.4400
2023-02-21T03:33:56.507Z,21.4500
2023-02-21T03:34:58.755Z,21.4500
2023-02-21T03:35:59.019Z,21.4300
2023-02-21T03:37:01.171Z,21.4300
2023-02-21T03:38:03.491Z,21.4300
2023-02-21T03:39:05.785Z,21.4300
2023-02-21T03:40:08.083Z,21.4300
2023-02-21T03:41:10.400Z,21.4300
2023-02-21T03:42:12.709Z,21.4300
2023-02-21T03:43:14.945Z,21.4200
2023-02-21T03:44:17.208Z,21.4200
2023-02-21T03:45:19.436Z,21.4200
2023-02-21T03:46:21.741Z,21.4100
2023-02-21T03:47:23.888Z,21.4100
2023-02-21T03:48:31.717Z,21.4000
2023-02-21T03:49:28.335Z,21.3800
2023-02-21T03:50:30.620Z,21.3700
2023-02-21T03:51:33.036Z,21.3900
2023-02-21T03:53:26.768Z,21.4900
2023-02-21T03:54:28.936Z,21.5500
2023-02-21T03:55:31.162Z,21.5800
2023-02-21T03:56:41.511Z,21.6000
2023-02-21T03:57:35.637Z,21.5900
2023-02-21T03:58:38.231Z,21.6100
2023-02-21T03:59:38.113Z,21.6100
2023-02-21T04:00:40.474Z,21.6200
2023-02-21T04:01:42.820Z,21.6100
2023-02-21T04:02:45.068Z,21.6100
2023-02-21T04:03:47.373Z,21.6100
2023-02-21T04:04:47.558Z,21.6100
2023-02-21T04:05:49.877Z,21.6000
2023-02-21T04:06:52.238Z,21.6100
2023-02-21T04:07:54.525Z,21.6100
2023-02-21T04:08:56.835Z,21.6100
2023-02-21T04:09:59.082Z,21.5900
2023-02-21T04:10:59.244Z,21.5900
2023-02-21T04:12:01.568Z,21.5900
2023-02-21T04:13:03.879Z,21.5900
2023-02-21T04:14:06.176Z,21.5900
2023-02-21T04:15:08.503Z,21.5800
2023-02-21T04:16:10.825Z,21.5800
2023-02-21T04:17:11.004Z,21.5700
2023-02-21T04:18:13.239Z,21.5700
2023-02-21T04:19:15.550Z,21.5700
2023-02-21T04:20:17.845Z,21.5600
2023-02-21T04:21:20.160Z,21.5500
2023-02-21T04:22:22.487Z,21.5500
2023-02-21T04:23:24.773Z,21.5500
2023-02-21T04:24:24.920Z,21.5500
2023-02-21T04:25:27.225Z,21.5500
2023-02-21T04:26:29.536Z,21.5400
2023-02-21T04:27:31.846Z,21.5300
2023-02-21T04:28:34.057Z,21.5200
2023-02-21T04:29:34.225Z,21.5200
2023-02-21T04:30:36.585Z,21.5200
2023-02-21T04:31:38.935Z,21.5300
2023-02-21T04:32:41.167Z,21.5300
2023-02-21T04:33:43.399Z,21.5400
2023-02-21T04:34:45.722Z,21.5300
2023-02-21T04:35:48.061Z,21.5300
2023-02-21T04:36:48.252Z,21.5200
2023-02-21T04:37:50.641Z,21.5100
2023-02-21T04:38:52.954Z,21.5100
2023-02-21T04:39:55.276Z,21.5000
2023-02-21T04:40:57.621Z,21.4900
2023-02-21T04:41:57.840Z,21.4900
2023-02-21T04:43:00.201Z,21.5000
2023-02-21T04:44:02.542Z,21.5000
2023-02-21T04:45:04.857Z,21.4900
2023-02-21T04:46:07.214Z,21.4900
2023-02-21T04:47:07.293Z,21.4800
2023-02-21T04:48:09.645Z,21.4900
2023-02-21T04:49:11.948Z,21.4700
2023-02-21T04:50:14.267Z,21.4700
2023-02-21T04:51:16.818Z,21.4800
2023-02-21T04:52:18.926Z,21.4700
2023-02-21T04:53:19.136Z,21.4700
2023-02-21T04:54:21.453Z,21.4700
2023-02-21T04:55:23.795Z,21.4800
2023-02-21T04:56:26.200Z,21.4800
2023-02-21T04:57:28.489Z,21.4800
2023-02-21T04:58:31.221Z,21.4800
2023-02-21T04:59:31.081Z,21.4700
2023-02-21T05:00:33.422Z,21.4700
2023-02-21T05:01:35.718Z,21.4700
2023-02-21T05:02:37.998Z,21.4600
2023-02-21T05:03:38.168Z,21.4700
2023-02-21T05:04:40.465Z,21.4800
2023-02-21T05:05:42.751Z,21.4700
2023-02-21T05:06:45.007Z,21.4700
2023-02-21T05:07:47.287Z,21.4800
2023-02-21T05:08:49.644Z,21.4800
2023-02-21T05:09:49.805Z,21.4600
2023-02-21T05:10:52.147Z,21.4500
2023-02-21T05:11:54.491Z,21.4500
2023-02-21T05:12:56.861Z,21.4600
2023-02-21T05:13:59.238Z,21.4400
2023-02-21T05:14:59.438Z,21.4500
2023-02-21T05:16:01.769Z,21.4400
2023-02-21T05:17:04.133Z,21.4400
2023-02-21T05:18:06.490Z,21.4400
2023-02-21T05:19:08.871Z,21.4400
2023-02-21T05:20:08.986Z,21.4300
2023-02-21T05:21:11.376Z,21.4500
2023-02-21T05:22:13.712Z,21.4300
2023-02-21T05:23:16.038Z,21.4200
2023-02-21T05:24:18.415Z,21.4100
2023-02-21T05:25:18.611Z,21.4100
2023-02-21T05:26:20.949Z,21.4100
2023-02-21T05:27:23.274Z,21.4100
2023-02-21T05:28:25.620Z,21.4100
2023-02-21T05:29:28.014Z,21.4100
2023-02-21T05:30:30.443Z,21.4200
2023-02-21T05:31:32.750Z,21.4100
2023-02-21T05:32:35.007Z,21.4100
2023-02-21T05:33:37.365Z,21.4100
2023-02-21T05:34:39.802Z,21.4100
2023-02-21T05:35:39.945Z,21.4000
2023-02-21T05:36:42.307Z,21.4100
2023-02-21T05:37:44.664Z,21.3900
2023-02-21T05:38:47.054Z,21.3700
2023-02-21T05:39:47.331Z,21.3900
2023-02-21T05:40:49.616Z,21.4000
2023-02-21T05:41:51.952Z,21.3900
2023-02-21T05:42:54.249Z,21.3800
2023-02-21T05:43:56.597Z,21.3800
2023-02-21T05:44:56.849Z,21.3800
2023-02-21T05:45:59.281Z,21.3700
2023-02-21T05:47:01.524Z,21.3800
2023-02-21T05:48:03.908Z,21.3700
2023-02-21T05:49:04.129Z,21.3500
2023-02-21T05:50:06.529Z,21.3600
2023-02-21T05:51:08.854Z,21.3500
2023-02-21T05:52:11.185Z,21.3600
2023-02-21T05:53:13.537Z,21.3600
2023-02-21T05:54:13.754Z,21.3600
2023-02-21T05:55:16.089Z,21.3400
2023-02-21T05:56:18.364Z,21.3400
2023-02-21T05:57:20.652Z,21.3400
2023-02-21T05:58:22.971Z,21.3400
2023-02-21T05:59:25.237Z,21.3300
2023-02-21T06:01:19.254Z,21.3000
2023-02-21T06:02:21.482Z,21.3000
2023-02-21T06:03:22.604Z,21.3100
2023-02-21T06:04:23.877Z,21.3200
2023-02-21T06:05:26.169Z,21.3000
2023-02-21T06:06:28.498Z,21.3100
2023-02-21T06:07:28.609Z,21.3000
2023-02-21T06:08:30.922Z,21.2900
2023-02-21T06:09:33.211Z,21.2700
2023-02-21T06:10:35.557Z,21.2600
2023-02-21T06:11:37.942Z,21.2600
2023-02-21T06:12:40.237Z,21.2400
2023-02-21T06:13:40.428Z,21.2400
2023-02-21T06:14:42.741Z,21.2300
2023-02-21T06:15:44.982Z,21.2200
2023-02-21T06:16:47.379Z,21.2200
2023-02-21T06:17:49.564Z,21.2100
2023-02-21T06:18:51.891Z,21.2100
2023-02-21T06:19:52.103Z,21.2000
2023-02-21T06:20:54.426Z,21.2100
2023-02-21T06:21:56.751Z,21.2100
2023-02-21T06:22:59.075Z,21.2000
2023-02-21T06:24:01.444Z,21.2000
2023-02-21T06:25:01.660Z,21.2100
2023-02-21T06:26:04.007Z,21.2200
2023-02-21T06:27:06.417Z,21.2200
2023-02-21T06:28:08.711Z,21.2100
2023-02-21T06:29:11.012Z,21.2300
2023-02-21T06:30:13.384Z,21.2300
2023-02-21T06:31:14.024Z,21.2300
2023-02-21T06:32:15.911Z,21.2300
2023-02-21T06:33:18.124Z,21.2200
2023-02-21T06:34:20.415Z,21.2200
2023-02-21T06:35:22.721Z,21.2200
2023-02-21T06:36:25.028Z,21.2300
2023-02-21T06:37:25.220Z,21.2100
2023-02-21T06:38:27.493Z,21.2200
2023-02-21T06:39:29.781Z,21.2100
2023-02-21T06:40:32.073Z,21.2200
2023-02-21T06:41:34.367Z,21.2400
2023-02-21T06:42:34.545Z,21.2200
2023-02-21T06:43:36.805Z,21.2300
2023-02-21T06:44:39.064Z,21.2300
2023-02-21T06:45:41.363Z,21.2300
2023-02-21T06:46:43.703Z,21.2200
2023-02-21T06:47:46.192Z,21.2200
2023-02-21T06:48:48.365Z,21.2200
2023-02-21T06:49:48.579Z,21.2200
2023-02-21T06:50:50.931Z,21.2300
2023-02-21T06:51:53.270Z,21.2300
2023-02-21T06:52:55.637Z,21.2200
2023-02-21T06:53:57.911Z,21.2100
2023-02-21T06:54:58.028Z,21.2300
2023-02-21T06:56:00.316Z,21.2300
2023-02-21T06:57:02.648Z,21.2400
2023-02-21T06:58:05.051Z,21.2300
2023-02-21T06:59:07.366Z,21.2100
2023-02-21T07:00:09.744Z,21.2100
2023-02-21T07:01:09.953Z,21.2000
2023-02-21T07:02:12.338Z,21.2100
2023-02-21T07:03:14.754Z,21.2200
2023-02-21T07:04:17.162Z,21.2100
2023-02-21T07:05:17.280Z,21.2300
2023-02-21T07:06:19.641Z,21.2400
2023-02-21T07:07:21.985Z,21.2300
2023-02-21T07:08:24.387Z,21.2300
2023-02-21T07:09:26.648Z,21.2300
2023-02-21T07:10:26.838Z,21.2200
2023-02-21T07:11:29.171Z,21.2200
2023-02-21T07:12:31.514Z,21.2200
2023-02-21T07:13:33.920Z,21.2200
2023-02-21T07:14:34.094Z,21.2100
2023-02-21T07:15:36.463Z,21.2100
2023-02-21T07:16:38.823Z,21.2100
2023-02-21T07:17:41.144Z,21.2100
2023-02-21T07:18:43.552Z,21.2100
2023-02-21T07:19:45.808Z,21.1900
2023-02-21T07:20:46.041Z,21.1900
2023-02-21T07:21:48.370Z,21.1900
2023-02-21T07:22:50.707Z,21.1900
2023-02-21T07:23:53.048Z,21.1900
2023-02-21T07:24:55.353Z,21.2000
2023-02-21T07:25:55.523Z,21.2000
2023-02-21T07:26:57.836Z,21.2100
2023-02-21T07:28:00.105Z,21.2000
2023-02-21T07:29:02.416Z,21.2100
2023-02-21T07:30:04.663Z,21.2200
2023-02-21T07:31:06.949Z,21.2100
2023-02-21T07:32:09.294Z,21.2000
2023-02-21T07:33:09.432Z,21.2000
2023-02-21T07:34:11.872Z,21.1900
2023-02-21T07:35:14.046Z,21.1900
2023-02-21T07:36:16.306Z,21.1900
2023-02-21T07:37:18.619Z,21.2000
2023-02-21T07:38:20.924Z,21.1900
2023-02-21T07:39:21.220Z,21.2000
2023-02-21T07:40:23.339Z,21.2000
2023-02-21T07:41:25.649Z,21.2000
2023-02-21T07:42:27.967Z,21.2000
2023-02-21T07:43:30.292Z,21.2100
2023-02-21T07:44:32.631Z,21.2100
2023-02-21T07:45:34.924Z,21.2100
2023-02-21T07:46:35.109Z,21.2100
2023-02-21T07:47:37.389Z,21.2200
2023-02-21T07:48:39.716Z,21.2100
2023-02-21T07:49:42.073Z,21.2100
2023-02-21T07:50:44.298Z,21.2200
2023-02-21T07:51:44.408Z,21.2200
2023-02-21T07:52:46.717Z,21.2200
2023-02-21T07:53:49.023Z,21.2200
2023-02-21T07:54:51.321Z,21.2300
2023-02-21T07:55:53.603Z,21.2300
2023-02-21T07:56:55.905Z,21.2100
2023-02-21T07:57:58.217Z,21.2000
2023-02-21T07:58:58.374Z,21.2100
2023-02-21T08:00:00.661Z,21.2100
2023-02-21T08:01:02.887Z,21.2300
2023-02-21T08:02:05.237Z,21.2400
2023-02-21T08:03:07.470Z,21.2400
2023-02-21T08:04:09.762Z,21.2600
2023-02-21T08:05:12.089Z,21.2400
2023-02-21T08:06:12.192Z,21.2300
2023-02-21T08:07:14.505Z,21.2300
2023-02-21T08:08:16.832Z,21.2200
2023-02-21T08:09:19.147Z,21.2200
2023-02-21T08:10:21.447Z,21.2300
2023-02-21T08:11:23.731Z,21.2300
2023-02-21T08:12:23.899Z,21.2200
2023-02-21T08:13:26.179Z,21.2300
2023-02-21T08:14:28.487Z,21.2300
2023-02-21T08:15:30.808Z,21.2300
2023-02-21T08:16:34.823Z,21.2300
2023-02-21T08:17:35.426Z,21.2200
2023-02-21T08:18:37.805Z,21.2200
2023-02-21T08:19:37.965Z,21.2300
2023-02-21T08:20:40.448Z,21.2300
2023-02-21T08:21:45.480Z,21.2200
2023-02-21T08:22:44.964Z,21.2300
2023-02-21T08:23:45.104Z,21.2300
2023-02-21T08:24:47.437Z,21.2400
2023-02-21T08:25:49.760Z,21.2400
2023-02-21T08:26:52.044Z,21.2300
2023-02-21T08:27:54.351Z,21.2400
2023-02-21T08:28:54.536Z,21.2300
2023-02-21T08:29:56.818Z,21.2200
2023-02-21T08:30:59.154Z,21.2400
2023-02-21T08:32:01.435Z,21.2400
2023-02-21T08:33:03.729Z,21.2400
2023-02-21T08:34:05.998Z,21.2400
2023-02-21T08:35:08.289Z,21.2500
2023-02-21T08:36:08.487Z,21.2400
2023-02-21T08:37:10.732Z,21.2300
2023-02-21T08:38:13.038Z,21.2300
2023-02-21T08:39:15.341Z,21.2400
2023-02-21T08:40:17.640Z,21.2500
2023-02-21T08:41:19.989Z,21.2500
2023-02-21T08:42:22.282Z,21.2500
2023-02-21T08:43:22.454Z,21.2500
2023-02-21T08:44:24.775Z,21.2500
2023-02-21T08:45:27.101Z,21.2600
2023-02-21T08:46:29.467Z,21.2700
2023-02-21T08:47:31.716Z,21.2700
2023-02-21T08:48:34.023Z,21.2700
2023-02-21T08:49:34.208Z,21.2800
2023-02-21T08:50:36.512Z,21.2800
2023-02-21T08:51:38.896Z,21.2900
2023-02-21T08:52:41.147Z,21.2900
2023-02-21T08:53:43.480Z,21.2900
2023-02-21T08:54:43.654Z,21.3100
2023-02-21T08:55:45.972Z,21.3000
2023-02-21T08:56:48.300Z,21.2900
2023-02-21T08:58:50.847Z,21.2700
2023-02-21T08:59:53.041Z,21.2800
2023-02-21T09:00:55.424Z,21.2800
2023-02-21T09:01:55.558Z,21.3000
2023-02-21T09:02:57.802Z,21.3000
2023-02-21T09:04:00.141Z,21.3100
2023-02-21T09:05:02.409Z,21.3200
2023-02-21T09:06:04.713Z,21.3200
2023-02-21T09:07:07.077Z,21.3400
2023-02-21T09:08:07.160Z,21.3400
2023-02-21T09:09:09.429Z,21.3300
2023-02-21T09:10:11.710Z,21.3200
2023-02-21T09:11:14.294Z,21.3200
2023-02-21T09:12:16.428Z,21.3400
2023-02-21T09:13:18.697Z,21.3200
2023-02-21T09:13:57.381Z,21.3200
2023-02-21T09:14:59.717Z,21.3300
2023-02-21T09:16:02.119Z,21.3400
2023-02-21T09:17:04.409Z,21.3400
2023-02-21T09:18:06.797Z,21.3600
2023-02-21T09:19:06.953Z,21.3400
2023-02-21T09:20:09.261Z,21.3400
2023-02-21T09:21:11.627Z,21.3600
2023-02-21T09:22:13.896Z,21.3700
2023-02-21T09:23:16.263Z,21.3700
2023-02-21T09:24:18.584Z,21.3800
2023-02-21T09:25:18.751Z,21.3800
2023-02-21T09:26:21.058Z,21.3900
2023-02-21T09:27:23.416Z,21.4000
2023-02-21T09:28:25.789Z,21.4000
2023-02-21T09:29:37.071Z,21.4000
2023-02-21T09:30:28.270Z,21.3800
2023-02-21T09:31:30.603Z,21.3900
2023-02-21T09:32:32.923Z,21.4100
2023-02-21T09:33:35.242Z,21.4100
2023-02-21T09:34:37.524Z,21.4200
2023-02-21T09:35:39.864Z,21.4200
2023-02-21T09:36:39.958Z,21.4400
2023-02-21T09:37:42.294Z,21.4300
2023-02-21T09:38:44.643Z,21.4400
2023-02-21T09:39:46.971Z,21.4500
2023-02-21T09:40:49.314Z,21.4500
2023-02-21T09:41:51.679Z,21.4600
2023-02-21T09:42:51.877Z,21.4700
2023-02-21T09:43:54.395Z,21.4700
2023-02-21T09:44:56.606Z,21.4800
2023-02-21T09:45:59.049Z,21.4700
2023-02-21T09:46:59.175Z,21.4800
2023-02-21T09:48:01.552Z,21.4800
2023-02-21T09:49:03.946Z,21.5000
2023-02-21T09:50:06.233Z,21.5100
2023-02-21T09:51:06.420Z,21.5100
2023-02-21T09:52:08.778Z,21.5400
2023-02-21T09:53:11.137Z,21.5400
2023-02-21T09:54:13.502Z,21.5700
2023-02-21T09:55:15.801Z,21.5900
2023-02-21T09:56:18.144Z,21.5800
2023-02-21T09:57:18.329Z,21.5900
2023-02-21T09:58:20.637Z,21.6100
2023-02-21T09:59:22.943Z,21.6100
2023-02-21T10:00:25.232Z,21.6200
2023-02-21T10:01:27.567Z,21.6500
2023-02-21T10:02:29.860Z,21.6600
2023-02-21T10:03:30.028Z,21.6500
2023-02-21T10:05:41.227Z,21.6500
2023-02-21T10:06:43.427Z,21.6600
2023-02-21T10:07:45.691Z,21.6700
2023-02-21T10:08:47.965Z,21.7100
2023-02-21T10:09:50.265Z,21.7200
2023-02-21T10:10:52.505Z,21.7300
2023-02-21T10:11:54.743Z,21.7400
2023-02-21T10:12:56.991Z,21.7400
2023-02-21T10:13:57.113Z,21.7400
2023-02-21T10:14:59.354Z,21.7500
2023-02-21T10:16:01.652Z,21.7600
2023-02-21T10:17:03.875Z,21.7700
2023-02-21T10:18:06.160Z,21.7800
2023-02-21T10:19:08.426Z,21.7800
2023-02-21T10:20:10.710Z,21.7900
2023-02-21T10:21:13.303Z,21.8100
2023-02-21T10:22:15.267Z,21.8200
2023-02-21T10:23:15.373Z,21.8300
2023-02-21T10:24:17.695Z,21.8300
2023-02-21T10:25:19.943Z,21.8400
2023-02-21T10:26:22.198Z,21.8500
2023-02-21T10:27:24.359Z,21.8500
2023-02-21T10:28:26.592Z,21.8800
2023-02-21T10:29:28.819Z,21.8900
2023-02-21T10:30:31.158Z,21.9000
2023-02-21T10:31:33.451Z,21.9000
2023-02-21T10:32:33.434Z,21.9100
2023-02-21T10:33:35.698Z,21.9200
2023-02-21T10:34:37.971Z,21.9300
2023-02-21T10:35:40.214Z,21.9300
2023-02-21T10:36:42.590Z,21.9400
2023-02-21T10:37:44.753Z,21.9500
2023-02-21T10:38:47.045Z,21.9600
2023-02-21T10:39:49.385Z,21.9700
2023-02-21T10:40:49.522Z,21.9800
2023-02-21T10:41:51.836Z,21.9900
2023-02-21T10:42:54.137Z,22.0000
2023-02-21T10:43:56.466Z,22.0100
2023-02-21T10:44:58.792Z,22.0300
2023-02-21T10:45:59.034Z,22.0200
2023-02-21T10:47:01.330Z,22.0400
2023-02-21T10:48:03.628Z,22.0500
2023-02-21T10:49:05.933Z,22.0700
2023-02-21T10:50:08.253Z,22.0600
2023-02-21T10:51:10.582Z,22.0700
2023-02-21T10:52:10.829Z,22.0700
2023-02-21T10:53:13.062Z,22.0900
2023-02-21T10:54:15.369Z,22.1000
2023-02-21T10:55:31.409Z,22.1100
2023-02-21T10:56:20.092Z,22.1100
2023-02-21T10:57:22.457Z,22.1300
2023-02-21T10:58:22.500Z,22.1400
2023-02-21T10:59:24.808Z,22.1500
2023-02-21T11:00:27.063Z,22.1700
2023-02-21T11:01:29.334Z,22.1700
2023-02-21T11:02:31.790Z,22.1800
2023-02-21T11:03:33.868Z,22.1800
2023-02-21T11:04:36.140Z,22.1900
2023-02-21T11:05:38.392Z,22.2000
2023-02-21T11:06:38.493Z,22.2200
2023-02-21T11:07:40.787Z,22.2200
2023-02-21T11:08:42.979Z,22.2200
2023-02-21T11:09:45.232Z,22.2500
2023-02-21T11:10:47.495Z,22.2600
2023-02-21T11:11:49.738Z,22.2700
2023-02-21T11:12:52.027Z,22.2700
2023-02-21T11:13:54.277Z,22.2800
2023-02-21T11:14:56.496Z,22.2800
2023-02-21T11:15:56.640Z,22.3000
2023-02-21T11:16:58.853Z,22.3100
2023-02-21T11:18:01.164Z,22.3300
2023-02-21T11:19:03.373Z,22.3300
2023-02-21T11:20:05.639Z,22.3500
2023-02-21T11:21:07.877Z,22.3600
2023-02-21T11:22:10.158Z,22.3700
2023-02-21T11:23:12.440Z,22.3800
2023-02-21T11:24:14.680Z,22.3900
2023-02-21T11:25:14.817Z,22.3900
2023-02-21T11:26:17.102Z,22.3900
2023-02-21T11:27:19.326Z,22.4100
2023-02-21T11:28:21.631Z,22.4200
2023-02-21T11:29:23.863Z,22.4200
2023-02-21T11:30:26.216Z,22.4300
2023-02-21T11:32:37.237Z,22.4200
2023-02-21T11:33:39.504Z,22.4400
2023-02-21T11:34:41.734Z,22.4500
2023-02-21T11:35:44.037Z,22.4600
2023-02-21T11:36:46.294Z,22.4600
2023-02-21T11:37:48.552Z,22.4700
2023-02-21T11:38:50.940Z,22.4800
2023-02-21T11:39:50.964Z,22.4900
2023-02-21T11:40:53.242Z,22.5100
2023-02-21T11:41:55.567Z,22.5100
2023-02-21T11:42:57.819Z,22.5300
2023-02-21T11:44:00.141Z,22.5400
2023-02-21T11:45:02.388Z,22.5400
2023-02-21T11:46:04.752Z,22.5500
2023-02-21T11:47:06.950Z,22.5500
2023-02-21T11:48:07.128Z,22.5600
2023-02-21T11:49:09.402Z,22.5700
2023-02-21T11:50:11.637Z,22.5800
2023-02-21T11:51:14.382Z,22.5900
2023-02-21T11:52:16.203Z,22.6100
2023-02-21T11:53:18.527Z,22.6200
2023-02-21T11:54:20.870Z,22.6200
2023-02-21T11:55:21.825Z,22.6400
2023-02-21T11:56:23.319Z,22.6400
2023-02-21T11:57:25.639Z,22.6600
2023-02-21T11:58:27.893Z,22.6600
2023-02-21T11:59:30.187Z,22.6800
2023-02-21T12:00:32.432Z,22.6900
2023-02-21T12:01:34.696Z,22.6900
2023-02-21T12:02:34.899Z,22.7100
2023-02-21T12:03:37.008Z,22.7200
2023-02-21T12:04:39.271Z,22.7300
2023-02-21T12:05:41.568Z,22.7300
2023-02-21T12:06:43.692Z,22.7400
2023-02-21T12:07:45.951Z,22.7600
2023-02-21T12:08:48.196Z,22.7600
2023-02-21T12:09:50.569Z,22.7800
2023-02-21T12:10:52.701Z,22.7900
2023-02-21T12:11:54.936Z,22.8000
2023-02-21T12:12:55.066Z,22.8200
2023-02-21T12:13:57.300Z,22.8200
2023-02-21T12:14:59.590Z,22.8300
2023-02-21T12:16:01.869Z,22.8400
2023-02-21T12:17:04.097Z,22.8600
2023-02-21T12:18:06.360Z,22.8700
2023-02-21T12:19:08.627Z,22.8800
2023-02-21T12:20:10.896Z,22.9000
2023-02-21T12:21:11.010Z,22.9100
2023-02-21T12:22:13.261Z,22.9200
2023-02-21T12:23:15.501Z,22.9300
2023-02-21T12:24:17.778Z,22.9400
2023-02-21T12:25:20.075Z,22.9500
2023-02-21T12:26:22.299Z,22.9600
2023-02-21T12:27:24.568Z,22.9700
2023-02-21T12:28:26.855Z,22.9800
2023-02-21T12:29:29.097Z,22.9900
2023-02-21T12:30:29.282Z,23.0000
2023-02-21T12:31:31.734Z,23.0100
2023-02-21T12:32:33.801Z,23.0300
2023-02-21T12:33:36.113Z,23.0400